sensor_id;sensor_type;location;lat;lon;timestamp;pressure;altitude;pressure_sealevel;temperature;humidity
57024;BME280;42916;54.346;18.562;2023-10-09T00:02:10;100984.08;;;3.55;87.79
57024;BME280;42916;54.346;18.562;2023-10-09T00:04:37;100970.97;;;3.57;87.73
57024;BME280;42916;54.346;18.562;2023-10-09T00:07:08;100962.70;;;3.60;87.63
57024;BME280;42916;54.346;18.562;2023-10-09T00:09:35;100961.04;;;3.63;87.56
57024;BME280;42916;54.346;18.562;2023-10-09T00:12:18;100953.33;;;3.66;87.84
57024;BME280;42916;54.346;18.562;2023-10-09T00:14:54;100940.92;;;3.67;87.54
57024;BME280;42916;54.346;18.562;2023-10-09T00:17:34;100933.41;;;3.70;87.83
57024;BME280;42916;54.346;18.562;2023-10-09T00:20:00;100926.86;;;3.71;87.64
57024;BME280;42916;54.346;18.562;2023-10-09T00:22:35;100931.14;;;3.72;87.80
57024;BME280;42916;54.346;18.562;2023-10-09T00:25:08;100933.52;;;3.73;88.04
57024;BME280;42916;54.346;18.562;2023-10-09T00:27:42;100934.56;;;3.76;87.57
57024;BME280;42916;54.346;18.562;2023-10-09T00:30:11;100932.14;;;3.80;87.26
57024;BME280;42916;54.346;18.562;2023-10-09T00:32:41;100930.72;;;3.84;87.52
57024;BME280;42916;54.346;18.562;2023-10-09T00:35:18;100927.52;;;3.87;87.34
57024;BME280;42916;54.346;18.562;2023-10-09T00:38:04;100923.60;;;3.91;87.10
57024;BME280;42916;54.346;18.562;2023-10-09T00:40:48;100922.29;;;3.94;87.37
57024;BME280;42916;54.346;18.562;2023-10-09T00:43:23;100926.12;;;3.96;87.42
57024;BME280;42916;54.346;18.562;2023-10-09T00:45:57;100925.21;;;3.98;86.97
57024;BME280;42916;54.346;18.562;2023-10-09T00:48:35;100923.30;;;3.99;86.91
57024;BME280;42916;54.346;18.562;2023-10-09T00:51:07;100927.54;;;4.01;86.77
57024;BME280;42916;54.346;18.562;2023-10-09T00:56:11;100932.45;;;4.04;86.65
57024;BME280;42916;54.346;18.562;2023-10-09T00:58:50;100926.58;;;4.06;86.66
57024;BME280;42916;54.346;18.562;2023-10-09T01:01:33;100923.90;;;4.09;86.55
57024;BME280;42916;54.346;18.562;2023-10-09T01:04:03;100926.70;;;4.08;86.62
57024;BME280;42916;54.346;18.562;2023-10-09T01:06:43;100926.88;;;4.07;86.60
57024;BME280;42916;54.346;18.562;2023-10-09T01:09:14;100927.70;;;4.06;86.65
57024;BME280;42916;54.346;18.562;2023-10-09T01:11:41;100932.27;;;4.07;86.33
57024;BME280;42916;54.346;18.562;2023-10-09T01:14:15;100930.61;;;4.06;86.29
57024;BME280;42916;54.346;18.562;2023-10-09T01:16:43;100929.20;;;4.06;86.02
57024;BME280;42916;54.346;18.562;2023-10-09T01:19:10;100923.84;;;4.06;86.48
57024;BME280;42916;54.346;18.562;2023-10-09T01:21:47;100916.34;;;4.05;86.46
57024;BME280;42916;54.346;18.562;2023-10-09T01:24:15;100918.79;;;4.05;86.12
57024;BME280;42916;54.346;18.562;2023-10-09T01:26:43;100913.16;;;4.06;86.33
57024;BME280;42916;54.346;18.562;2023-10-09T01:29:23;100917.02;;;4.07;86.47
57024;BME280;42916;54.346;18.562;2023-10-09T01:31:56;100915.91;;;4.07;86.30
57024;BME280;42916;54.346;18.562;2023-10-09T01:34:31;100925.80;;;4.07;86.56
57024;BME280;42916;54.346;18.562;2023-10-09T01:37:01;100927.58;;;4.07;86.44
57024;BME280;42916;54.346;18.562;2023-10-09T01:39:31;100929.81;;;4.06;86.12
57024;BME280;42916;54.346;18.562;2023-10-09T01:42:06;100926.91;;;4.07;86.09
57024;BME280;42916;54.346;18.562;2023-10-09T01:44:33;100925.39;;;4.07;86.02
57024;BME280;42916;54.346;18.562;2023-10-09T01:47:09;100922.74;;;4.10;85.93
57024;BME280;42916;54.346;18.562;2023-10-09T01:49:40;100913.77;;;4.11;86.09
57024;BME280;42916;54.346;18.562;2023-10-09T01:52:11;100906.98;;;4.12;85.88
57024;BME280;42916;54.346;18.562;2023-10-09T01:54:43;100903.12;;;4.13;85.93
57024;BME280;42916;54.346;18.562;2023-10-09T01:57:17;100893.36;;;4.13;85.67
57024;BME280;42916;54.346;18.562;2023-10-09T01:59:51;100895.16;;;4.13;85.74
57024;BME280;42916;54.346;18.562;2023-10-09T02:02:21;100894.23;;;4.12;85.74
57024;BME280;42916;54.346;18.562;2023-10-09T02:04:59;100892.14;;;4.12;85.83
57024;BME280;42916;54.346;18.562;2023-10-09T02:07:50;100895.17;;;4.12;85.61
57024;BME280;42916;54.346;18.562;2023-10-09T02:10:22;100891.83;;;4.13;85.70
57024;BME280;42916;54.346;18.562;2023-10-09T02:15:29;100893.36;;;4.15;85.53
57024;BME280;42916;54.346;18.562;2023-10-09T02:18:21;100894.06;;;4.15;85.42
57024;BME280;42916;54.346;18.562;2023-10-09T02:20:49;100884.79;;;4.14;85.37
57024;BME280;42916;54.346;18.562;2023-10-09T02:23:30;100875.41;;;4.13;85.25
57024;BME280;42916;54.346;18.562;2023-10-09T02:26:08;100868.70;;;4.12;85.22
57024;BME280;42916;54.346;18.562;2023-10-09T02:28:53;100859.83;;;4.10;85.36
57024;BME280;42916;54.346;18.562;2023-10-09T02:31:30;100858.50;;;4.09;85.23
57024;BME280;42916;54.346;18.562;2023-10-09T02:34:07;100854.21;;;4.07;85.23
57024;BME280;42916;54.346;18.562;2023-10-09T02:36:37;100851.26;;;4.04;85.21
57024;BME280;42916;54.346;18.562;2023-10-09T02:39:15;100852.77;;;4.04;85.27
57024;BME280;42916;54.346;18.562;2023-10-09T02:41:53;100851.06;;;4.05;84.92
57024;BME280;42916;54.346;18.562;2023-10-09T02:44:27;100851.83;;;4.06;85.08
57024;BME280;42916;54.346;18.562;2023-10-09T02:47:05;100845.72;;;4.06;85.16
57024;BME280;42916;54.346;18.562;2023-10-09T02:49:38;100836.61;;;4.07;85.13
57024;BME280;42916;54.346;18.562;2023-10-09T02:52:07;100838.02;;;4.05;85.24
57024;BME280;42916;54.346;18.562;2023-10-09T02:54:34;100838.42;;;4.04;84.84
57024;BME280;42916;54.346;18.562;2023-10-09T02:57:08;100838.04;;;4.03;85.29
57024;BME280;42916;54.346;18.562;2023-10-09T02:59:41;100831.90;;;4.00;85.19
57024;BME280;42916;54.346;18.562;2023-10-09T03:02:11;100832.86;;;3.99;85.13
57024;BME280;42916;54.346;18.562;2023-10-09T03:04:38;100827.17;;;3.97;85.27
57024;BME280;42916;54.346;18.562;2023-10-09T03:07:05;100826.60;;;3.97;85.21
57024;BME280;42916;54.346;18.562;2023-10-09T03:09:33;100823.09;;;3.98;84.98
57024;BME280;42916;54.346;18.562;2023-10-09T03:12:03;100819.94;;;3.99;85.15
57024;BME280;42916;54.346;18.562;2023-10-09T03:14:35;100821.44;;;3.98;84.83
57024;BME280;42916;54.346;18.562;2023-10-09T03:17:05;100816.61;;;3.96;85.06
57024;BME280;42916;54.346;18.562;2023-10-09T03:19:33;100811.52;;;3.94;85.29
57024;BME280;42916;54.346;18.562;2023-10-09T03:22:05;100808.23;;;3.90;85.59
57024;BME280;42916;54.346;18.562;2023-10-09T03:24:36;100798.77;;;3.88;85.42
57024;BME280;42916;54.346;18.562;2023-10-09T03:27:03;100790.81;;;3.85;85.39
57024;BME280;42916;54.346;18.562;2023-10-09T03:29:30;100789.73;;;3.84;85.50
57024;BME280;42916;54.346;18.562;2023-10-09T03:31:57;100791.52;;;3.83;85.40
57024;BME280;42916;54.346;18.562;2023-10-09T03:34:24;100786.02;;;3.82;85.41
57024;BME280;42916;54.346;18.562;2023-10-09T03:36:50;100779.13;;;3.81;85.37
57024;BME280;42916;54.346;18.562;2023-10-09T03:39:46;100775.10;;;3.81;85.44
57024;BME280;42916;54.346;18.562;2023-10-09T03:42:14;100780.04;;;3.80;85.74
57024;BME280;42916;54.346;18.562;2023-10-09T03:44:47;100779.56;;;3.76;85.70
57024;BME280;42916;54.346;18.562;2023-10-09T03:47:19;100780.88;;;3.72;85.56
57024;BME280;42916;54.346;18.562;2023-10-09T03:49:50;100783.38;;;3.68;85.96
57024;BME280;42916;54.346;18.562;2023-10-09T03:52:20;100790.05;;;3.63;85.64
57024;BME280;42916;54.346;18.562;2023-10-09T03:54:50;100799.52;;;3.59;85.76
57024;BME280;42916;54.346;18.562;2023-10-09T03:57:17;100802.15;;;3.56;85.69
57024;BME280;42916;54.346;18.562;2023-10-09T03:59:46;100800.72;;;3.53;85.88
57024;BME280;42916;54.346;18.562;2023-10-09T04:02:18;100799.31;;;3.51;86.18
57024;BME280;42916;54.346;18.562;2023-10-09T04:04:44;100796.13;;;3.51;86.03
57024;BME280;42916;54.346;18.562;2023-10-09T04:07:14;100790.20;;;3.50;86.29
57024;BME280;42916;54.346;18.562;2023-10-09T04:09:43;100788.52;;;3.51;86.53
57024;BME280;42916;54.346;18.562;2023-10-09T04:12:20;100790.34;;;3.52;86.74
57024;BME280;42916;54.346;18.562;2023-10-09T04:14:47;100783.30;;;3.53;87.10
57024;BME280;42916;54.346;18.562;2023-10-09T04:17:16;100781.09;;;3.56;86.84
57024;BME280;42916;54.346;18.562;2023-10-09T04:19:49;100780.98;;;3.59;86.87
57024;BME280;42916;54.346;18.562;2023-10-09T04:22:40;100775.52;;;3.63;86.75
57024;BME280;42916;54.346;18.562;2023-10-09T04:25:39;100769.10;;;3.69;86.64
57024;BME280;42916;54.346;18.562;2023-10-09T04:28:09;100772.73;;;3.74;86.56
57024;BME280;42916;54.346;18.562;2023-10-09T04:30:40;100775.87;;;3.75;86.72
57024;BME280;42916;54.346;18.562;2023-10-09T04:33:06;100773.74;;;3.79;86.52
57024;BME280;42916;54.346;18.562;2023-10-09T04:36:07;100769.69;;;3.81;86.56
57024;BME280;42916;54.346;18.562;2023-10-09T04:38:53;100759.84;;;3.82;86.41
57024;BME280;42916;54.346;18.562;2023-10-09T04:41:42;100751.36;;;3.84;86.00
57024;BME280;42916;54.346;18.562;2023-10-09T04:44:10;100748.21;;;3.85;86.43
57024;BME280;42916;54.346;18.562;2023-10-09T04:46:46;100754.85;;;3.87;86.10
57024;BME280;42916;54.346;18.562;2023-10-09T04:49:33;100753.16;;;3.91;85.92
57024;BME280;42916;54.346;18.562;2023-10-09T04:52:28;100747.66;;;3.94;85.93
57024;BME280;42916;54.346;18.562;2023-10-09T04:54:55;100747.63;;;3.97;85.74
57024;BME280;42916;54.346;18.562;2023-10-09T04:57:37;100745.35;;;3.99;85.73
57024;BME280;42916;54.346;18.562;2023-10-09T05:00:14;100745.20;;;4.02;85.88
57024;BME280;42916;54.346;18.562;2023-10-09T05:05:29;100742.75;;;4.05;85.51
57024;BME280;42916;54.346;18.562;2023-10-09T05:08:09;100741.68;;;4.05;85.86
57024;BME280;42916;54.346;18.562;2023-10-09T05:13:27;100744.10;;;4.11;85.38
57024;BME280;42916;54.346;18.562;2023-10-09T05:16:14;100741.37;;;4.14;85.41
57024;BME280;42916;54.346;18.562;2023-10-09T05:18:45;100733.79;;;4.18;85.26
57024;BME280;42916;54.346;18.562;2023-10-09T05:21:23;100732.26;;;4.20;85.43
57024;BME280;42916;54.346;18.562;2023-10-09T05:24:00;100730.36;;;4.21;85.31
57024;BME280;42916;54.346;18.562;2023-10-09T05:29:25;100718.97;;;4.22;85.44
57024;BME280;42916;54.346;18.562;2023-10-09T05:31:55;100716.45;;;4.24;85.02
57024;BME280;42916;54.346;18.562;2023-10-09T05:34:24;100714.03;;;4.27;85.21
57024;BME280;42916;54.346;18.562;2023-10-09T05:37:04;100712.02;;;4.30;85.14
57024;BME280;42916;54.346;18.562;2023-10-09T05:39:55;100713.18;;;4.33;84.97
57024;BME280;42916;54.346;18.562;2023-10-09T05:42:46;100713.09;;;4.35;84.79
57024;BME280;42916;54.346;18.562;2023-10-09T05:45:24;100714.17;;;4.37;84.79
57024;BME280;42916;54.346;18.562;2023-10-09T05:48:16;100716.42;;;4.38;84.71
57024;BME280;42916;54.346;18.562;2023-10-09T05:50:43;100708.52;;;4.39;84.56
57024;BME280;42916;54.346;18.562;2023-10-09T05:53:29;100714.50;;;4.41;84.41
57024;BME280;42916;54.346;18.562;2023-10-09T05:56:11;100718.02;;;4.45;84.48
57024;BME280;42916;54.346;18.562;2023-10-09T05:58:57;100715.96;;;4.50;84.37
57024;BME280;42916;54.346;18.562;2023-10-09T06:01:33;100712.44;;;4.53;84.38
57024;BME280;42916;54.346;18.562;2023-10-09T06:04:18;100715.09;;;4.57;84.23
57024;BME280;42916;54.346;18.562;2023-10-09T06:06:46;100703.52;;;4.60;84.05
57024;BME280;42916;54.346;18.562;2023-10-09T06:09:22;100696.97;;;4.65;84.33
57024;BME280;42916;54.346;18.562;2023-10-09T06:11:49;100693.39;;;4.68;84.09
57024;BME280;42916;54.346;18.562;2023-10-09T06:14:22;100696.79;;;4.74;83.91
57024;BME280;42916;54.346;18.562;2023-10-09T06:17:09;100701.27;;;4.78;83.68
57024;BME280;42916;54.346;18.562;2023-10-09T06:19:50;100704.15;;;4.84;83.65
57024;BME280;42916;54.346;18.562;2023-10-09T06:22:25;100707.95;;;4.90;83.18
57024;BME280;42916;54.346;18.562;2023-10-09T06:25:10;100709.52;;;4.98;83.21
57024;BME280;42916;54.346;18.562;2023-10-09T06:27:38;100714.54;;;5.03;83.25
57024;BME280;42916;54.346;18.562;2023-10-09T06:30:16;100717.05;;;5.09;82.85
57024;BME280;42916;54.346;18.562;2023-10-09T06:32:53;100714.98;;;5.19;82.90
57024;BME280;42916;54.346;18.562;2023-10-09T06:35:29;100717.60;;;5.35;82.88
57024;BME280;42916;54.346;18.562;2023-10-09T06:38:00;100721.82;;;5.49;82.06
57024;BME280;42916;54.346;18.562;2023-10-09T06:40:37;100725.41;;;5.63;81.59
57024;BME280;42916;54.346;18.562;2023-10-09T06:43:20;100728.46;;;5.76;81.27
57024;BME280;42916;54.346;18.562;2023-10-09T06:45:56;100727.82;;;5.89;81.05
57024;BME280;42916;54.346;18.562;2023-10-09T06:48:49;100731.52;;;6.01;80.40
57024;BME280;42916;54.346;18.562;2023-10-09T06:51:26;100733.52;;;6.12;80.66
57024;BME280;42916;54.346;18.562;2023-10-09T06:53:54;100723.60;;;6.23;80.60
57024;BME280;42916;54.346;18.562;2023-10-09T06:56:21;100729.81;;;6.32;79.82
57024;BME280;42916;54.346;18.562;2023-10-09T06:58:58;100730.46;;;6.40;79.91
57024;BME280;42916;54.346;18.562;2023-10-09T07:01:26;100731.57;;;6.48;79.36
57024;BME280;42916;54.346;18.562;2023-10-09T07:04:06;100731.91;;;6.58;79.44
57024;BME280;42916;54.346;18.562;2023-10-09T07:06:51;100732.60;;;6.70;79.36
57024;BME280;42916;54.346;18.562;2023-10-09T07:09:19;100731.85;;;6.80;79.24
57024;BME280;42916;54.346;18.562;2023-10-09T07:11:54;100736.45;;;6.87;78.92
57024;BME280;42916;54.346;18.562;2023-10-09T07:14:22;100731.52;;;6.92;78.71
57024;BME280;42916;54.346;18.562;2023-10-09T07:17:00;100729.17;;;6.98;78.54
57024;BME280;42916;54.346;18.562;2023-10-09T07:19:28;100731.55;;;7.03;77.86
57024;BME280;42916;54.346;18.562;2023-10-09T07:22:01;100731.61;;;7.08;78.13
57024;BME280;42916;54.346;18.562;2023-10-09T07:24:42;100729.88;;;7.14;77.84
57024;BME280;42916;54.346;18.562;2023-10-09T07:27:29;100727.71;;;7.23;78.01
57024;BME280;42916;54.346;18.562;2023-10-09T07:30:28;100731.07;;;7.32;77.02
57024;BME280;42916;54.346;18.562;2023-10-09T07:33:06;100731.23;;;7.40;76.84
57024;BME280;42916;54.346;18.562;2023-10-09T07:38:16;100725.55;;;7.62;76.74
57024;BME280;42916;54.346;18.562;2023-10-09T07:40:47;100725.05;;;7.68;75.83
57024;BME280;42916;54.346;18.562;2023-10-09T07:43:46;100733.92;;;7.76;74.55
57024;BME280;42916;54.346;18.562;2023-10-09T07:46:17;100735.94;;;7.80;74.93
57024;BME280;42916;54.346;18.562;2023-10-09T07:49:01;100733.52;;;7.87;73.80
57024;BME280;42916;54.346;18.562;2023-10-09T07:51:37;100732.48;;;7.92;74.53
57024;BME280;42916;54.346;18.562;2023-10-09T07:54:04;100730.11;;;8.01;74.27
57024;BME280;42916;54.346;18.562;2023-10-09T07:56:38;100733.42;;;8.06;73.98
57024;BME280;42916;54.346;18.562;2023-10-09T07:59:08;100735.58;;;8.12;73.79
57024;BME280;42916;54.346;18.562;2023-10-09T08:04:04;100736.91;;;8.16;73.28
57024;BME280;42916;54.346;18.562;2023-10-09T08:06:43;100736.36;;;8.19;72.54
57024;BME280;42916;54.346;18.562;2023-10-09T08:09:11;100732.36;;;8.21;72.59
57024;BME280;42916;54.346;18.562;2023-10-09T08:11:43;100724.77;;;8.25;72.55
57024;BME280;42916;54.346;18.562;2023-10-09T08:14:14;100726.73;;;8.32;72.84
57024;BME280;42916;54.346;18.562;2023-10-09T08:16:59;100718.02;;;8.39;72.24
57024;BME280;42916;54.346;18.562;2023-10-09T08:19:49;100711.59;;;8.48;72.61
57024;BME280;42916;54.346;18.562;2023-10-09T08:22:37;100706.36;;;8.56;71.43
57024;BME280;42916;54.346;18.562;2023-10-09T08:25:12;100697.58;;;8.60;71.40
57024;BME280;42916;54.346;18.562;2023-10-09T08:28:01;100695.52;;;8.66;71.07
57024;BME280;42916;54.346;18.562;2023-10-09T08:30:48;100690.32;;;8.75;70.76
57024;BME280;42916;54.346;18.562;2023-10-09T08:33:17;100686.99;;;8.79;70.59
57024;BME280;42916;54.346;18.562;2023-10-09T08:35:54;100680.94;;;8.84;70.43
57024;BME280;42916;54.346;18.562;2023-10-09T08:38:34;100681.45;;;8.88;69.82
57024;BME280;42916;54.346;18.562;2023-10-09T08:41:11;100671.21;;;8.86;69.42
57024;BME280;42916;54.346;18.562;2023-10-09T08:43:48;100667.10;;;8.89;70.29
57024;BME280;42916;54.346;18.562;2023-10-09T08:46:19;100669.33;;;8.91;69.71
57024;BME280;42916;54.346;18.562;2023-10-09T08:48:47;100670.96;;;8.89;69.42
57024;BME280;42916;54.346;18.562;2023-10-09T08:51:17;100669.44;;;8.82;67.95
57024;BME280;42916;54.346;18.562;2023-10-09T08:53:44;100675.34;;;8.84;69.05
57024;BME280;42916;54.346;18.562;2023-10-09T08:56:13;100675.93;;;8.85;67.81
57024;BME280;42916;54.346;18.562;2023-10-09T08:58:52;100674.11;;;8.90;68.27
57024;BME280;42916;54.346;18.562;2023-10-09T09:01:20;100679.41;;;8.94;67.74
57024;BME280;42916;54.346;18.562;2023-10-09T09:03:49;100678.98;;;8.99;68.64
57024;BME280;42916;54.346;18.562;2023-10-09T09:06:19;100683.03;;;9.10;68.64
57024;BME280;42916;54.346;18.562;2023-10-09T09:08:47;100689.55;;;9.21;68.46
57024;BME280;42916;54.346;18.562;2023-10-09T09:11:16;100685.65;;;9.32;67.43
57024;BME280;42916;54.346;18.562;2023-10-09T09:16:30;100687.07;;;9.54;66.33
57024;BME280;42916;54.346;18.562;2023-10-09T09:19:06;100693.05;;;9.57;64.86
57024;BME280;42916;54.346;18.562;2023-10-09T09:21:41;100689.63;;;9.59;65.57
57024;BME280;42916;54.346;18.562;2023-10-09T09:24:10;100693.72;;;9.66;65.55
57024;BME280;42916;54.346;18.562;2023-10-09T09:26:50;100694.88;;;9.72;65.88
57024;BME280;42916;54.346;18.562;2023-10-09T09:32:04;100684.75;;;10.02;66.30
57024;BME280;42916;54.346;18.562;2023-10-09T09:35:11;100681.72;;;10.24;65.78
57024;BME280;42916;54.346;18.562;2023-10-09T09:37:52;100682.20;;;10.42;65.41
57024;BME280;42916;54.346;18.562;2023-10-09T09:40:20;100681.98;;;10.55;65.07
57024;BME280;42916;54.346;18.562;2023-10-09T09:42:58;100684.11;;;10.65;64.48
57024;BME280;42916;54.346;18.562;2023-10-09T09:45:36;100686.33;;;10.73;64.40
57024;BME280;42916;54.346;18.562;2023-10-09T09:48:04;100683.75;;;10.79;63.10
57024;BME280;42916;54.346;18.562;2023-10-09T09:50:38;100684.98;;;10.76;59.99
57024;BME280;42916;54.346;18.562;2023-10-09T09:53:16;100685.98;;;10.75;60.02
57024;BME280;42916;54.346;18.562;2023-10-09T09:55:51;100680.50;;;10.72;59.69
57024;BME280;42916;54.346;18.562;2023-10-09T09:58:25;100677.27;;;10.74;59.60
57024;BME280;42916;54.346;18.562;2023-10-09T10:01:03;100675.81;;;10.82;60.46
57024;BME280;42916;54.346;18.562;2023-10-09T10:03:49;100672.70;;;10.90;60.13
57024;BME280;42916;54.346;18.562;2023-10-09T10:06:21;100662.55;;;10.87;58.79
57024;BME280;42916;54.346;18.562;2023-10-09T10:08:53;100664.75;;;10.89;58.95
57024;BME280;42916;54.346;18.562;2023-10-09T10:11:42;100664.97;;;10.89;58.57
57024;BME280;42916;54.346;18.562;2023-10-09T10:14:14;100665.54;;;10.84;57.43
57024;BME280;42916;54.346;18.562;2023-10-09T10:17:07;100662.85;;;10.81;56.92
57024;BME280;42916;54.346;18.562;2023-10-09T10:22:27;100661.52;;;10.80;57.02
57024;BME280;42916;54.346;18.562;2023-10-09T10:24:55;100657.73;;;10.85;57.94
57024;BME280;42916;54.346;18.562;2023-10-09T10:27:26;100656.36;;;10.88;58.13
57024;BME280;42916;54.346;18.562;2023-10-09T10:35:21;100666.88;;;10.93;56.34
57024;BME280;42916;54.346;18.562;2023-10-09T10:40:51;100660.96;;;10.87;54.32
57024;BME280;42916;54.346;18.562;2023-10-09T10:43:24;100654.95;;;10.94;55.33
57024;BME280;42916;54.346;18.562;2023-10-09T10:46:09;100654.23;;;11.08;55.64
57024;BME280;42916;54.346;18.562;2023-10-09T10:48:50;100658.85;;;11.21;55.52
57024;BME280;42916;54.346;18.562;2023-10-09T10:51:28;100653.45;;;11.33;55.30
57024;BME280;42916;54.346;18.562;2023-10-09T10:54:08;100650.64;;;11.44;55.13
57024;BME280;42916;54.346;18.562;2023-10-09T10:56:54;100645.48;;;11.47;54.60
57024;BME280;42916;54.346;18.562;2023-10-09T10:59:24;100651.30;;;11.45;52.50
57024;BME280;42916;54.346;18.562;2023-10-09T11:01:53;100646.48;;;11.43;53.84
57024;BME280;42916;54.346;18.562;2023-10-09T11:04:21;100644.77;;;11.52;53.88
57024;BME280;42916;54.346;18.562;2023-10-09T11:07:06;100641.04;;;11.59;53.38
57024;BME280;42916;54.346;18.562;2023-10-09T11:09:46;100638.45;;;11.66;53.57
57024;BME280;42916;54.346;18.562;2023-10-09T11:12:28;100634.42;;;11.83;53.40
57024;BME280;42916;54.346;18.562;2023-10-09T11:15:07;100628.77;;;11.94;52.27
57024;BME280;42916;54.346;18.562;2023-10-09T11:18:06;100616.61;;;11.99;52.03
57024;BME280;42916;54.346;18.562;2023-10-09T11:20:35;100612.75;;;12.14;52.69
57024;BME280;42916;54.346;18.562;2023-10-09T11:23:06;100607.13;;;12.21;49.96
57024;BME280;42916;54.346;18.562;2023-10-09T11:25:43;100614.30;;;12.39;51.89
57024;BME280;42916;54.346;18.562;2023-10-09T11:28:23;100613.23;;;12.50;51.56
57024;BME280;42916;54.346;18.562;2023-10-09T11:31:11;100615.08;;;12.33;49.86
57024;BME280;42916;54.346;18.562;2023-10-09T11:33:51;100609.17;;;12.11;50.20
57024;BME280;42916;54.346;18.562;2023-10-09T11:36:20;100601.10;;;12.11;50.28
57024;BME280;42916;54.346;18.562;2023-10-09T11:39:02;100598.69;;;12.23;50.26
57024;BME280;42916;54.346;18.562;2023-10-09T11:41:48;100595.05;;;12.30;48.77
57024;BME280;42916;54.346;18.562;2023-10-09T11:44:37;100590.23;;;12.36;48.92
57024;BME280;42916;54.346;18.562;2023-10-09T11:47:07;100578.91;;;12.62;49.72
57024;BME280;42916;54.346;18.562;2023-10-09T11:49:49;100575.40;;;12.92;48.54
57024;BME280;42916;54.346;18.562;2023-10-09T11:52:23;100573.88;;;13.06;48.31
57024;BME280;42916;54.346;18.562;2023-10-09T11:55:03;100566.71;;;13.21;48.77
57024;BME280;42916;54.346;18.562;2023-10-09T11:57:30;100565.61;;;13.48;47.85
57024;BME280;42916;54.346;18.562;2023-10-09T11:59:58;100567.41;;;13.45;46.22
57024;BME280;42916;54.346;18.562;2023-10-09T12:02:26;100563.16;;;13.55;47.30
57024;BME280;42916;54.346;18.562;2023-10-09T12:04:53;100560.40;;;13.80;47.67
57024;BME280;42916;54.346;18.562;2023-10-09T12:07:24;100554.48;;;13.89;46.60
57024;BME280;42916;54.346;18.562;2023-10-09T12:09:51;100554.65;;;14.05;46.96
57024;BME280;42916;54.346;18.562;2023-10-09T12:12:23;100553.28;;;14.13;44.78
57024;BME280;42916;54.346;18.562;2023-10-09T12:14:53;100556.06;;;14.14;45.24
57024;BME280;42916;54.346;18.562;2023-10-09T12:17:20;100558.36;;;14.21;44.82
57024;BME280;42916;54.346;18.562;2023-10-09T12:19:51;100559.95;;;14.20;45.19
57024;BME280;42916;54.346;18.562;2023-10-09T12:22:18;100561.27;;;14.11;45.57
57024;BME280;42916;54.346;18.562;2023-10-09T12:24:48;100561.27;;;13.99;45.03
57024;BME280;42916;54.346;18.562;2023-10-09T12:27:14;100559.23;;;13.96;45.42
57024;BME280;42916;54.346;18.562;2023-10-09T12:29:46;100559.95;;;14.10;45.22
57024;BME280;42916;54.346;18.562;2023-10-09T12:32:14;100556.28;;;14.44;45.73
57024;BME280;42916;54.346;18.562;2023-10-09T12:34:46;100559.60;;;14.83;45.55
57024;BME280;42916;54.346;18.562;2023-10-09T12:37:16;100557.89;;;15.20;45.36
57024;BME280;42916;54.346;18.562;2023-10-09T12:39:47;100555.70;;;15.49;44.93
57024;BME280;42916;54.346;18.562;2023-10-09T12:42:14;100552.48;;;15.54;44.24
57024;BME280;42916;54.346;18.562;2023-10-09T12:44:43;100555.30;;;15.33;42.87
57024;BME280;42916;54.346;18.562;2023-10-09T12:47:11;100555.26;;;14.87;42.78
57024;BME280;42916;54.346;18.562;2023-10-09T12:49:38;100563.94;;;14.55;43.69
57024;BME280;42916;54.346;18.562;2023-10-09T12:52:07;100563.58;;;14.39;43.50
57024;BME280;42916;54.346;18.562;2023-10-09T12:54:43;100560.27;;;14.26;43.69
57024;BME280;42916;54.346;18.562;2023-10-09T12:57:13;100562.92;;;14.09;44.04
57024;BME280;42916;54.346;18.562;2023-10-09T12:59:43;100563.18;;;13.89;43.69
57024;BME280;42916;54.346;18.562;2023-10-09T13:02:15;100561.27;;;13.98;44.78
57024;BME280;42916;54.346;18.562;2023-10-09T13:04:58;100552.20;;;14.43;44.97
57024;BME280;42916;54.346;18.562;2023-10-09T13:07:26;100542.92;;;15.01;44.86
57024;BME280;42916;54.346;18.562;2023-10-09T13:09:53;100546.14;;;15.34;43.71
57024;BME280;42916;54.346;18.562;2023-10-09T13:12:35;100557.39;;;15.57;41.57
57024;BME280;42916;54.346;18.562;2023-10-09T13:15:09;100558.23;;;15.72;41.13
57024;BME280;42916;54.346;18.562;2023-10-09T13:17:39;100552.96;;;15.95;40.94
57024;BME280;42916;54.346;18.562;2023-10-09T13:20:06;100553.66;;;16.20;41.04
57024;BME280;42916;54.346;18.562;2023-10-09T13:22:43;100551.97;;;16.31;39.80
57024;BME280;42916;54.346;18.562;2023-10-09T13:25:10;100551.68;;;16.27;40.18
57024;BME280;42916;54.346;18.562;2023-10-09T13:27:43;100554.67;;;16.24;40.00
57024;BME280;42916;54.346;18.562;2023-10-09T13:30:18;100553.52;;;15.93;38.39
57024;BME280;42916;54.346;18.562;2023-10-09T13:32:54;100552.51;;;15.48;38.87
57024;BME280;42916;54.346;18.562;2023-10-09T13:35:21;100550.93;;;15.09;39.41
57024;BME280;42916;54.346;18.562;2023-10-09T13:38:04;100549.69;;;14.81;40.19
57024;BME280;42916;54.346;18.562;2023-10-09T13:40:36;100544.38;;;14.64;40.32
57024;BME280;42916;54.346;18.562;2023-10-09T13:43:04;100541.59;;;14.52;40.73
57024;BME280;42916;54.346;18.562;2023-10-09T13:45:38;100540.70;;;14.39;40.41
57024;BME280;42916;54.346;18.562;2023-10-09T13:48:05;100541.17;;;14.20;40.85
57024;BME280;42916;54.346;18.562;2023-10-09T13:50:32;100542.65;;;14.21;41.16
57024;BME280;42916;54.346;18.562;2023-10-09T13:52:59;100541.95;;;14.15;41.21
57024;BME280;42916;54.346;18.562;2023-10-09T13:55:26;100540.30;;;14.03;41.33
57024;BME280;42916;54.346;18.562;2023-10-09T13:58:09;100538.36;;;13.92;41.79
57024;BME280;42916;54.346;18.562;2023-10-09T14:00:45;100540.66;;;13.78;41.67
57024;BME280;42916;54.346;18.562;2023-10-09T14:03:13;100540.27;;;13.69;42.10